sensor_id;sensor_type;location;lat;lon;timestamp;pressure;altitude;pressure_sealevel;temperature
71630;BMP280;59479;51.902;8.212;2023-08-08T00:02:20;100742.28;;;16.30
71630;BMP280;59479;51.902;8.212;2023-08-08T00:04:45;100738.91;;;16.30
71630;BMP280;59479;51.902;8.212;2023-08-08T00:07:11;100726.19;;;16.31
71630;BMP280;59479;51.902;8.212;2023-08-08T00:09:37;100723.72;;;16.28
71630;BMP280;59479;51.902;8.212;2023-08-08T00:12:06;100721.03;;;16.34
71630;BMP280;59479;51.902;8.212;2023-08-08T00:14:39;100723.56;;;16.36
71630;BMP280;59479;51.902;8.212;2023-08-08T00:17:07;100725.25;;;16.35
71630;BMP280;59479;51.902;8.212;2023-08-08T00:19:32;100713.59;;;16.28
71630;BMP280;59479;51.902;8.212;2023-08-08T00:21:58;100718.69;;;16.27
71630;BMP280;59479;51.902;8.212;2023-08-08T00:24:23;100716.28;;;16.18
71630;BMP280;59479;51.902;8.212;2023-08-08T00:26:48;100713.69;;;16.24
71630;BMP280;59479;51.902;8.212;2023-08-08T00:29:14;100712.84;;;16.23
71630;BMP280;59479;51.902;8.212;2023-08-08T00:31:39;100712.06;;;16.21
71630;BMP280;59479;51.902;8.212;2023-08-08T00:34:08;100706.94;;;16.23
71630;BMP280;59479;51.902;8.212;2023-08-08T00:36:35;100708.66;;;16.19
71630;BMP280;59479;51.902;8.212;2023-08-08T00:39:01;100692.72;;;16.14
71630;BMP280;59479;51.902;8.212;2023-08-08T00:41:26;100692.59;;;16.22
71630;BMP280;59479;51.902;8.212;2023-08-08T00:43:52;100693.59;;;16.13
71630;BMP280;59479;51.902;8.212;2023-08-08T00:46:21;100697.94;;;16.08
71630;BMP280;59479;51.902;8.212;2023-08-08T00:48:51;100691.81;;;16.17
71630;BMP280;59479;51.902;8.212;2023-08-08T00:51:18;100691.69;;;16.24
71630;BMP280;59479;51.902;8.212;2023-08-08T00:53:44;100683.31;;;16.19
71630;BMP280;59479;51.902;8.212;2023-08-08T00:56:12;100679.97;;;16.17
71630;BMP280;59479;51.902;8.212;2023-08-08T00:58:38;100680.09;;;16.13
71630;BMP280;59479;51.902;8.212;2023-08-08T01:01:04;100682.63;;;16.13
71630;BMP280;59479;51.902;8.212;2023-08-08T01:03:30;100679.25;;;16.11
71630;BMP280;59479;51.902;8.212;2023-08-08T01:08:55;100681.00;;;16.09
71630;BMP280;59479;51.902;8.212;2023-08-08T01:11:23;100677.91;;;15.97
71630;BMP280;59479;51.902;8.212;2023-08-08T01:13:49;100683.69;;;16.03
71630;BMP280;59479;51.902;8.212;2023-08-08T01:16:15;100689.50;;;16.08
71630;BMP280;59479;51.902;8.212;2023-08-08T01:18:41;100675.78;;;16.16
71630;BMP280;59479;51.902;8.212;2023-08-08T01:21:08;100682.47;;;16.19
71630;BMP280;59479;51.902;8.212;2023-08-08T01:23:43;100680.94;;;16.12
71630;BMP280;59479;51.902;8.212;2023-08-08T01:26:10;100678.53;;;16.06
71630;BMP280;59479;51.902;8.212;2023-08-08T01:28:36;100677.66;;;16.07
71630;BMP280;59479;51.902;8.212;2023-08-08T01:31:01;100672.38;;;16.16
71630;BMP280;59479;51.902;8.212;2023-08-08T01:33:26;100682.63;;;16.13
71630;BMP280;59479;51.902;8.212;2023-08-08T01:36:02;100679.44;;;16.03
71630;BMP280;59479;51.902;8.212;2023-08-08T01:38:33;100681.31;;;15.94
71630;BMP280;59479;51.902;8.212;2023-08-08T01:41:01;100676.22;;;15.96
71630;BMP280;59479;51.902;8.212;2023-08-08T01:43:50;100664.47;;;15.93
71630;BMP280;59479;51.902;8.212;2023-08-08T01:46:22;100661.16;;;15.90
71630;BMP280;59479;51.902;8.212;2023-08-08T01:48:50;100667.16;;;15.84
71630;BMP280;59479;51.902;8.212;2023-08-08T01:51:17;100664.50;;;15.92
71630;BMP280;59479;51.902;8.212;2023-08-08T01:53:45;100680.50;;;15.94
71630;BMP280;59479;51.902;8.212;2023-08-08T01:56:10;100677.28;;;15.86
71630;BMP280;59479;51.902;8.212;2023-08-08T01:58:38;100672.25;;;15.83
71630;BMP280;59479;51.902;8.212;2023-08-08T02:01:03;100662.03;;;15.87
71630;BMP280;59479;51.902;8.212;2023-08-08T02:03:29;100671.31;;;15.90
71630;BMP280;59479;51.902;8.212;2023-08-08T02:05:54;100672.84;;;15.97
71630;BMP280;59479;51.902;8.212;2023-08-08T02:08:19;100662.09;;;15.84
71630;BMP280;59479;51.902;8.212;2023-08-08T02:10:45;100662.03;;;15.87
71630;BMP280;59479;51.902;8.212;2023-08-08T02:13:10;100648.59;;;15.84
71630;BMP280;59479;51.902;8.212;2023-08-08T02:15:36;100645.94;;;15.90
71630;BMP280;59479;51.902;8.212;2023-08-08T02:18:01;100649.44;;;15.84
71630;BMP280;59479;51.902;8.212;2023-08-08T02:20:28;100640.78;;;15.93
71630;BMP280;59479;51.902;8.212;2023-08-08T02:22:54;100639.16;;;15.92
71630;BMP280;59479;51.902;8.212;2023-08-08T02:25:20;100636.63;;;15.90
71630;BMP280;59479;51.902;8.212;2023-08-08T02:27:45;100632.38;;;15.92
71630;BMP280;59479;51.902;8.212;2023-08-08T02:30:11;100638.28;;;15.91
71630;BMP280;59479;51.902;8.212;2023-08-08T02:32:36;100628.22;;;15.90
71630;BMP280;59479;51.902;8.212;2023-08-08T02:35:02;100623.94;;;15.92
71630;BMP280;59479;51.902;8.212;2023-08-08T02:37:27;100633.34;;;15.87
71630;BMP280;59479;51.902;8.212;2023-08-08T02:39:52;100628.94;;;15.95
71630;BMP280;59479;51.902;8.212;2023-08-08T02:42:18;100639.75;;;16.01
71630;BMP280;59479;51.902;8.212;2023-08-08T02:44:43;100629.81;;;15.94
71630;BMP280;59479;51.902;8.212;2023-08-08T02:47:08;100627.25;;;15.94
71630;BMP280;59479;51.902;8.212;2023-08-08T02:49:34;100635.72;;;15.93
71630;BMP280;59479;51.902;8.212;2023-08-08T02:52:00;100633.94;;;15.97
71630;BMP280;59479;51.902;8.212;2023-08-08T02:54:25;100618.81;;;15.95
71630;BMP280;59479;51.902;8.212;2023-08-08T02:56:51;100615.28;;;16.01
71630;BMP280;59479;51.902;8.212;2023-08-08T02:59:17;100617.88;;;15.97
71630;BMP280;59479;51.902;8.212;2023-08-08T03:01:42;100618.81;;;15.95
71630;BMP280;59479;51.902;8.212;2023-08-08T03:04:07;100624.66;;;15.97
71630;BMP280;59479;51.902;8.212;2023-08-08T03:06:33;100619.59;;;15.97
71630;BMP280;59479;51.902;8.212;2023-08-08T03:08:58;100618.69;;;15.99
71630;BMP280;59479;51.902;8.212;2023-08-08T03:11:24;100615.38;;;15.96
71630;BMP280;59479;51.902;8.212;2023-08-08T03:13:49;100603.59;;;15.95
71630;BMP280;59479;51.902;8.212;2023-08-08T03:16:14;100604.41;;;15.97
71630;BMP280;59479;51.902;8.212;2023-08-08T03:18:40;100599.31;;;15.97
71630;BMP280;59479;51.902;8.212;2023-08-08T03:21:06;100597.63;;;15.97
71630;BMP280;59479;51.902;8.212;2023-08-08T03:23:31;100598.59;;;15.92
71630;BMP280;59479;51.902;8.212;2023-08-08T03:25:56;100599.28;;;15.98
71630;BMP280;59479;51.902;8.212;2023-08-08T03:28:22;100593.56;;;15.89
71630;BMP280;59479;51.902;8.212;2023-08-08T03:30:47;100592.81;;;15.85
71630;BMP280;59479;51.902;8.212;2023-08-08T03:33:13;100585.88;;;15.93
71630;BMP280;59479;51.902;8.212;2023-08-08T03:35:38;100583.38;;;15.92
71630;BMP280;59479;51.902;8.212;2023-08-08T03:38:03;100574.91;;;15.93
71630;BMP280;59479;51.902;8.212;2023-08-08T03:40:30;100580.84;;;15.92
71630;BMP280;59479;51.902;8.212;2023-08-08T03:42:55;100578.44;;;15.86
71630;BMP280;59479;51.902;8.212;2023-08-08T03:45:20;100581.91;;;15.82
71630;BMP280;59479;51.902;8.212;2023-08-08T03:47:46;100575.81;;;15.90
71630;BMP280;59479;51.902;8.212;2023-08-08T03:50:11;100575.78;;;15.92
71630;BMP280;59479;51.902;8.212;2023-08-08T03:52:37;100575.00;;;15.90
71630;BMP280;59479;51.902;8.212;2023-08-08T03:55:03;100573.38;;;15.86
71630;BMP280;59479;51.902;8.212;2023-08-08T03:57:29;100577.56;;;15.88
71630;BMP280;59479;51.902;8.212;2023-08-08T03:59:54;100569.19;;;15.85
71630;BMP280;59479;51.902;8.212;2023-08-08T04:02:20;100572.50;;;15.87
71630;BMP280;59479;51.902;8.212;2023-08-08T04:04:45;100568.25;;;15.89
71630;BMP280;59479;51.902;8.212;2023-08-08T04:07:10;100569.91;;;15.90
71630;BMP280;59479;51.902;8.212;2023-08-08T04:09:36;100573.25;;;15.92
71630;BMP280;59479;51.902;8.212;2023-08-08T04:12:01;100580.06;;;15.90
71630;BMP280;59479;51.902;8.212;2023-08-08T04:14:26;100585.91;;;15.92
71630;BMP280;59479;51.902;8.212;2023-08-08T04:16:52;100576.69;;;15.88
71630;BMP280;59479;51.902;8.212;2023-08-08T04:19:17;100576.66;;;15.89
71630;BMP280;59479;51.902;8.212;2023-08-08T04:21:42;100577.38;;;15.96
71630;BMP280;59479;51.902;8.212;2023-08-08T04:24:08;100576.63;;;15.91
71630;BMP280;59479;51.902;8.212;2023-08-08T04:26:33;100582.50;;;15.93
71630;BMP280;59479;51.902;8.212;2023-08-08T04:28:59;100590.19;;;15.90
71630;BMP280;59479;51.902;8.212;2023-08-08T04:31:24;100587.78;;;15.84
71630;BMP280;59479;51.902;8.212;2023-08-08T04:33:51;100578.47;;;15.84
71630;BMP280;59479;51.902;8.212;2023-08-08T04:36:17;100579.25;;;15.86
71630;BMP280;59479;51.902;8.212;2023-08-08T04:38:42;100586.00;;;15.87
71630;BMP280;59479;51.902;8.212;2023-08-08T04:41:08;100582.63;;;15.88
71630;BMP280;59479;51.902;8.212;2023-08-08T04:43:33;100576.78;;;15.85
71630;BMP280;59479;51.902;8.212;2023-08-08T04:45:58;100579.19;;;15.89
71630;BMP280;59479;51.902;8.212;2023-08-08T04:48:26;100575.88;;;15.87
71630;BMP280;59479;51.902;8.212;2023-08-08T04:50:51;100579.16;;;15.91
71630;BMP280;59479;51.902;8.212;2023-08-08T04:53:19;100580.06;;;15.90
71630;BMP280;59479;51.902;8.212;2023-08-08T04:55:44;100570.75;;;15.90
71630;BMP280;59479;51.902;8.212;2023-08-08T04:58:10;100562.31;;;15.90
71630;BMP280;59479;51.902;8.212;2023-08-08T05:00:35;100560.56;;;15.92
71630;BMP280;59479;51.902;8.212;2023-08-08T05:03:01;100565.69;;;15.89
71630;BMP280;59479;51.902;8.212;2023-08-08T05:05:26;100562.94;;;15.61
71630;BMP280;59479;51.902;8.212;2023-08-08T05:07:52;100564.41;;;15.71
71630;BMP280;59479;51.902;8.212;2023-08-08T05:10:17;100575.06;;;15.46
71630;BMP280;59479;51.902;8.212;2023-08-08T05:12:42;100577.38;;;15.58
71630;BMP280;59479;51.902;8.212;2023-08-08T05:15:08;100564.47;;;15.68
71630;BMP280;59479;51.902;8.212;2023-08-08T05:17:33;100577.22;;;15.64
71630;BMP280;59479;51.902;8.212;2023-08-08T05:19:59;100571.16;;;15.71
71630;BMP280;59479;51.902;8.212;2023-08-08T05:22:25;100565.31;;;15.69
71630;BMP280;59479;51.902;8.212;2023-08-08T05:24:50;100565.16;;;15.76
71630;BMP280;59479;51.902;8.212;2023-08-08T05:27:15;100568.63;;;15.71
71630;BMP280;59479;51.902;8.212;2023-08-08T05:29:41;100562.50;;;15.81
71630;BMP280;59479;51.902;8.212;2023-08-08T05:32:07;100566.00;;;15.75
71630;BMP280;59479;51.902;8.212;2023-08-08T05:34:33;100558.38;;;15.77
71630;BMP280;59479;51.902;8.212;2023-08-08T05:36:58;100566.72;;;15.82
71630;BMP280;59479;51.902;8.212;2023-08-08T05:39:24;100568.56;;;15.74
71630;BMP280;59479;51.902;8.212;2023-08-08T05:41:49;100570.31;;;15.72
71630;BMP280;59479;51.902;8.212;2023-08-08T05:44:15;100563.50;;;15.74
71630;BMP280;59479;51.902;8.212;2023-08-08T05:46:40;100557.75;;;15.66
71630;BMP280;59479;51.902;8.212;2023-08-08T05:49:06;100559.28;;;15.73
71630;BMP280;59479;51.902;8.212;2023-08-08T05:51:32;100557.63;;;15.73
71630;BMP280;59479;51.902;8.212;2023-08-08T05:53:57;100555.81;;;15.78
71630;BMP280;59479;51.902;8.212;2023-08-08T05:56:22;100567.53;;;15.82
71630;BMP280;59479;51.902;8.212;2023-08-08T05:58:50;100563.44;;;15.77
71630;BMP280;59479;51.902;8.212;2023-08-08T06:01:24;100554.19;;;15.74
71630;BMP280;59479;51.902;8.212;2023-08-08T06:03:49;100560.09;;;15.76
71630;BMP280;59479;51.902;8.212;2023-08-08T06:06:15;100559.06;;;15.83
71630;BMP280;59479;51.902;8.212;2023-08-08T06:08:42;100558.16;;;15.86
71630;BMP280;59479;51.902;8.212;2023-08-08T06:11:08;100570.88;;;15.84
71630;BMP280;59479;51.902;8.212;2023-08-08T06:13:34;100557.25;;;15.90
71630;BMP280;59479;51.902;8.212;2023-08-08T06:15:59;100563.16;;;15.89
71630;BMP280;59479;51.902;8.212;2023-08-08T06:18:28;100568.06;;;15.96
71630;BMP280;59479;51.902;8.212;2023-08-08T06:20:54;100563.91;;;15.94
71630;BMP280;59479;51.902;8.212;2023-08-08T06:23:19;100565.44;;;15.99
71630;BMP280;59479;51.902;8.212;2023-08-08T06:25:47;100568.75;;;16.02
71630;BMP280;59479;51.902;8.212;2023-08-08T06:28:12;100569.41;;;16.10
71630;BMP280;59479;51.902;8.212;2023-08-08T06:30:40;100578.72;;;16.10
71630;BMP280;59479;51.902;8.212;2023-08-08T06:33:05;100560.94;;;16.11
71630;BMP280;59479;51.902;8.212;2023-08-08T06:35:31;100568.53;;;16.13
71630;BMP280;59479;51.902;8.212;2023-08-08T06:37:56;100567.53;;;16.18
71630;BMP280;59479;51.902;8.212;2023-08-08T06:40:22;100577.69;;;16.18
71630;BMP280;59479;51.902;8.212;2023-08-08T06:42:48;100580.31;;;16.14
71630;BMP280;59479;51.902;8.212;2023-08-08T06:45:14;100573.22;;;16.29
71630;BMP280;59479;51.902;8.212;2023-08-08T06:47:39;100577.44;;;16.30
71630;BMP280;59479;51.902;8.212;2023-08-08T06:50:05;100576.59;;;16.30
71630;BMP280;59479;51.902;8.212;2023-08-08T06:52:30;100587.63;;;16.27
71630;BMP280;59479;51.902;8.212;2023-08-08T06:54:56;100586.59;;;16.36
71630;BMP280;59479;51.902;8.212;2023-08-08T06:57:22;100579.94;;;16.32
71630;BMP280;59479;51.902;8.212;2023-08-08T06:59:47;100577.38;;;16.33
71630;BMP280;59479;51.902;8.212;2023-08-08T07:02:16;100575.59;;;16.37
71630;BMP280;59479;51.902;8.212;2023-08-08T07:04:42;100577.13;;;16.42
71630;BMP280;59479;51.902;8.212;2023-08-08T07:07:07;100577.06;;;16.45
71630;BMP280;59479;51.902;8.212;2023-08-08T07:09:32;100583.00;;;16.44
71630;BMP280;59479;51.902;8.212;2023-08-08T07:11:58;100564.50;;;16.39
71630;BMP280;59479;51.902;8.212;2023-08-08T07:14:23;100570.25;;;16.47
71630;BMP280;59479;51.902;8.212;2023-08-08T07:16:49;100572.00;;;16.45
71630;BMP280;59479;51.902;8.212;2023-08-08T07:19:14;100566.84;;;16.48
71630;BMP280;59479;51.902;8.212;2023-08-08T07:21:41;100569.44;;;16.45
71630;BMP280;59479;51.902;8.212;2023-08-08T07:24:06;100569.28;;;16.51
71630;BMP280;59479;51.902;8.212;2023-08-08T07:26:31;100572.03;;;16.43
71630;BMP280;59479;51.902;8.212;2023-08-08T07:28:57;100561.84;;;16.45
71630;BMP280;59479;51.902;8.212;2023-08-08T07:31:22;100565.03;;;16.53
71630;BMP280;59479;51.902;8.212;2023-08-08T07:33:56;100565.03;;;16.53
71630;BMP280;59479;51.902;8.212;2023-08-08T07:36:22;100561.66;;;16.51
71630;BMP280;59479;51.902;8.212;2023-08-08T07:38:47;100563.22;;;16.58
71630;BMP280;59479;51.902;8.212;2023-08-08T07:41:12;100566.28;;;16.69
71630;BMP280;59479;51.902;8.212;2023-08-08T07:43:38;100561.22;;;16.69
71630;BMP280;59479;51.902;8.212;2023-08-08T07:46:03;100549.38;;;16.68
71630;BMP280;59479;51.902;8.212;2023-08-08T07:48:28;100556.00;;;16.75
71630;BMP280;59479;51.902;8.212;2023-08-08T07:50:54;100552.63;;;16.73
71630;BMP280;59479;51.902;8.212;2023-08-08T07:53:19;100561.84;;;16.77
71630;BMP280;59479;51.902;8.212;2023-08-08T07:55:44;100562.78;;;16.73
71630;BMP280;59479;51.902;8.212;2023-08-08T07:58:10;100554.19;;;16.80
71630;BMP280;59479;51.902;8.212;2023-08-08T08:00:35;100561.22;;;16.69
71630;BMP280;59479;51.902;8.212;2023-08-08T08:03:00;100556.94;;;16.71
71630;BMP280;59479;51.902;8.212;2023-08-08T08:05:26;100556.00;;;16.75
71630;BMP280;59479;51.902;8.212;2023-08-08T08:07:51;100555.06;;;16.77
71630;BMP280;59479;51.902;8.212;2023-08-08T08:10:17;100560.31;;;16.71
71630;BMP280;59479;51.902;8.212;2023-08-08T08:12:42;100558.56;;;16.73
71630;BMP280;59479;51.902;8.212;2023-08-08T08:15:08;100555.06;;;16.77
71630;BMP280;59479;51.902;8.212;2023-08-08T08:17:34;100557.50;;;16.82
71630;BMP280;59479;51.902;8.212;2023-08-08T08:19:59;100547.16;;;16.87
71630;BMP280;59479;51.902;8.212;2023-08-08T08:22:25;100554.38;;;17.02
71630;BMP280;59479;51.902;8.212;2023-08-08T08:24:50;100547.03;;;16.93
71630;BMP280;59479;51.902;8.212;2023-08-08T08:27:17;100557.88;;;16.98
71630;BMP280;59479;51.902;8.212;2023-08-08T08:29:42;100555.41;;;16.95
71630;BMP280;59479;51.902;8.212;2023-08-08T08:32:08;100560.50;;;16.95
71630;BMP280;59479;51.902;8.212;2023-08-08T08:34:34;100541.00;;;16.96
71630;BMP280;59479;51.902;8.212;2023-08-08T08:36:59;100549.22;;;17.05
71630;BMP280;59479;51.902;8.212;2023-08-08T08:39:24;100547.03;;;16.93
71630;BMP280;59479;51.902;8.212;2023-08-08T08:41:54;100538.41;;;16.99
71630;BMP280;59479;51.902;8.212;2023-08-08T08:44:24;100542.63;;;17.00
71630;BMP280;59479;51.902;8.212;2023-08-08T08:46:51;100540.69;;;17.08
71630;BMP280;59479;51.902;8.212;2023-08-08T08:49:17;100541.59;;;17.05
71630;BMP280;59479;51.902;8.212;2023-08-08T08:51:44;100538.00;;;17.12
71630;BMP280;59479;51.902;8.212;2023-08-08T08:54:10;100540.53;;;17.14
71630;BMP280;59479;51.902;8.212;2023-08-08T08:56:35;100533.63;;;17.19
71630;BMP280;59479;51.902;8.212;2023-08-08T08:59:01;100541.25;;;17.17
71630;BMP280;59479;51.902;8.212;2023-08-08T09:01:27;100542.44;;;17.06
71630;BMP280;59479;51.902;8.212;2023-08-08T09:03:53;100543.16;;;17.09
71630;BMP280;59479;51.902;8.212;2023-08-08T09:06:19;100552.69;;;17.03
71630;BMP280;59479;51.902;8.212;2023-08-08T09:08:46;100531.28;;;17.11
71630;BMP280;59479;51.902;8.212;2023-08-08T09:11:12;100547.88;;;17.24
71630;BMP280;59479;51.902;8.212;2023-08-08T09:13:39;100532.16;;;17.10
71630;BMP280;59479;51.902;8.212;2023-08-08T09:16:05;100550.28;;;17.28
71630;BMP280;59479;51.902;8.212;2023-08-08T09:18:31;100544.78;;;17.13
71630;BMP280;59479;51.902;8.212;2023-08-08T09:20:58;100545.94;;;17.02
71630;BMP280;59479;51.902;8.212;2023-08-08T09:23:23;100541.44;;;17.11
71630;BMP280;59479;51.902;8.212;2023-08-08T09:25:48;100536.44;;;17.08
71630;BMP280;59479;51.902;8.212;2023-08-08T09:28:14;100535.47;;;17.12
71630;BMP280;59479;51.902;8.212;2023-08-08T09:30:41;100537.19;;;17.12
71630;BMP280;59479;51.902;8.212;2023-08-08T09:33:07;100531.38;;;17.08
71630;BMP280;59479;51.902;8.212;2023-08-08T09:35:32;100529.88;;;17.01
71630;BMP280;59479;51.902;8.212;2023-08-08T09:37:57;100526.97;;;17.15
71630;BMP280;59479;51.902;8.212;2023-08-08T09:40:23;100527.81;;;17.14
71630;BMP280;59479;51.902;8.212;2023-08-08T09:42:51;100526.50;;;17.31
71630;BMP280;59479;51.902;8.212;2023-08-08T09:45:17;100518.03;;;17.30
71630;BMP280;59479;51.902;8.212;2023-08-08T09:47:42;100519.81;;;17.28
71630;BMP280;59479;51.902;8.212;2023-08-08T09:50:08;100524.56;;;17.39
71630;BMP280;59479;51.902;8.212;2023-08-08T09:52:34;100518.66;;;17.38
71630;BMP280;59479;51.902;8.212;2023-08-08T09:55:00;100527.66;;;17.50
71630;BMP280;59479;51.902;8.212;2023-08-08T09:57:26;100523.63;;;17.43
71630;BMP280;59479;51.902;8.212;2023-08-08T09:59:52;100521.94;;;17.42
71630;BMP280;59479;51.902;8.212;2023-08-08T10:02:18;100525.19;;;17.47
71630;BMP280;59479;51.902;8.212;2023-08-08T10:04:46;100520.72;;;17.55
71630;BMP280;59479;51.902;8.212;2023-08-08T10:07:11;100521.28;;;17.63
71630;BMP280;59479;51.902;8.212;2023-08-08T10:09:37;100516.78;;;17.72
71630;BMP280;59479;51.902;8.212;2023-08-08T10:12:06;100519.19;;;17.76
71630;BMP280;59479;51.902;8.212;2023-08-08T10:14:35;100527.78;;;17.72
71630;BMP280;59479;51.902;8.212;2023-08-08T10:17:02;100522.81;;;17.69
71630;BMP280;59479;51.902;8.212;2023-08-08T10:19:28;100525.09;;;17.77
71630;BMP280;59479;51.902;8.212;2023-08-08T10:22:05;100529.31;;;17.78
71630;BMP280;59479;51.902;8.212;2023-08-08T10:24:36;100525.75;;;17.83
71630;BMP280;59479;51.902;8.212;2023-08-08T10:27:04;100515.22;;;17.94
71630;BMP280;59479;51.902;8.212;2023-08-08T10:29:31;100527.78;;;18.00
71630;BMP280;59479;51.902;8.212;2023-08-08T10:32:02;100532.50;;;18.10
71630;BMP280;59479;51.902;8.212;2023-08-08T10:34:44;100531.69;;;18.11
71630;BMP280;59479;51.902;8.212;2023-08-08T10:37:15;100534.91;;;18.16
71630;BMP280;59479;51.902;8.212;2023-08-08T10:39:54;100532.06;;;18.25
71630;BMP280;59479;51.902;8.212;2023-08-08T10:42:22;100541.56;;;18.20
71630;BMP280;59479;51.902;8.212;2023-08-08T10:45:01;100526.53;;;18.38
71630;BMP280;59479;51.902;8.212;2023-08-08T10:47:36;100518.63;;;18.46
71630;BMP280;59479;51.902;8.212;2023-08-08T10:50:12;100511.47;;;18.56
71630;BMP280;59479;51.902;8.212;2023-08-08T10:52:58;100514.97;;;18.52
71630;BMP280;59479;51.902;8.212;2023-08-08T10:55:26;100510.56;;;18.57
71630;BMP280;59479;51.902;8.212;2023-08-08T11:00:19;100515.50;;;18.62
71630;BMP280;59479;51.902;8.212;2023-08-08T11:02:45;100511.66;;;18.75
71630;BMP280;59479;51.902;8.212;2023-08-08T11:05:11;100512.28;;;18.81
71630;BMP280;59479;51.902;8.212;2023-08-08T11:07:38;100508.41;;;18.94
71630;BMP280;59479;51.902;8.212;2023-08-08T11:10:04;100510.72;;;19.01
71630;BMP280;59479;51.902;8.212;2023-08-08T11:12:29;100510.78;;;19.00
71630;BMP280;59479;51.902;8.212;2023-08-08T11:14:54;100523.03;;;19.13
71630;BMP280;59479;51.902;8.212;2023-08-08T11:17:20;100506.31;;;19.06
71630;BMP280;59479;51.902;8.212;2023-08-08T11:19:45;100508.69;;;19.11
71630;BMP280;59479;51.902;8.212;2023-08-08T11:22:11;100505.19;;;19.13
71630;BMP280;59479;51.902;8.212;2023-08-08T11:24:39;100503.97;;;19.23
71630;BMP280;59479;51.902;8.212;2023-08-08T11:27:04;100501.47;;;19.44
71630;BMP280;59479;51.902;8.212;2023-08-08T11:29:30;100503.34;;;19.39
71630;BMP280;59479;51.902;8.212;2023-08-08T11:31:59;100505.28;;;19.33
71630;BMP280;59479;51.902;8.212;2023-08-08T11:34:24;100493.72;;;19.25
71630;BMP280;59479;51.902;8.212;2023-08-08T11:36:50;100500.56;;;19.45
71630;BMP280;59479;51.902;8.212;2023-08-08T11:39:15;100496.75;;;19.55
71630;BMP280;59479;51.902;8.212;2023-08-08T11:41:41;100503.84;;;19.70
71630;BMP280;59479;51.902;8.212;2023-08-08T11:44:07;100494.59;;;19.68
71630;BMP280;59479;51.902;8.212;2023-08-08T11:46:33;100505.50;;;19.71
71630;BMP280;59479;51.902;8.212;2023-08-08T11:49:05;100486.63;;;19.75
71630;BMP280;59479;51.902;8.212;2023-08-08T11:51:32;100489.13;;;19.77
71630;BMP280;59479;51.902;8.212;2023-08-08T11:53:59;100489.28;;;19.72
71630;BMP280;59479;51.902;8.212;2023-08-08T11:56:24;100489.44;;;19.69
71630;BMP280;59479;51.902;8.212;2023-08-08T11:58:50;100494.53;;;19.69
71630;BMP280;59479;51.902;8.212;2023-08-08T12:01:22;100501.28;;;19.70
71630;BMP280;59479;51.902;8.212;2023-08-08T12:03:48;100484.91;;;19.76
71630;BMP280;59479;51.902;8.212;2023-08-08T12:06:17;100493.66;;;19.91
71630;BMP280;59479;51.902;8.212;2023-08-08T12:08:47;100482.13;;;20.03
71630;BMP280;59479;51.902;8.212;2023-08-08T12:11:14;100483.03;;;20.02
71630;BMP280;59479;51.902;8.212;2023-08-08T12:13:43;100486.28;;;20.05
71630;BMP280;59479;51.902;8.212;2023-08-08T12:16:10;100477.28;;;19.97
71630;BMP280;59479;51.902;8.212;2023-08-08T12:18:36;100467.47;;;20.08
71630;BMP280;59479;51.902;8.212;2023-08-08T12:21:05;100476.28;;;20.21
71630;BMP280;59479;51.902;8.212;2023-08-08T12:23:31;100476.28;;;20.21
71630;BMP280;59479;51.902;8.212;2023-08-08T12:25:58;100486.22;;;20.07
71630;BMP280;59479;51.902;8.212;2023-08-08T12:28:23;100485.47;;;20.05
71630;BMP280;59479;51.902;8.212;2023-08-08T12:30:48;100483.78;;;20.04
71630;BMP280;59479;51.902;8.212;2023-08-08T12:33:14;100478.06;;;20.19
71630;BMP280;59479;51.902;8.212;2023-08-08T12:35:39;100484.31;;;20.31
71630;BMP280;59479;51.902;8.212;2023-08-08T12:38:04;100472.44;;;20.30
71630;BMP280;59479;51.902;8.212;2023-08-08T12:40:30;100505.25;;;20.39
71630;BMP280;59479;51.902;8.212;2023-08-08T12:42:55;100489.81;;;20.23
71630;BMP280;59479;51.902;8.212;2023-08-08T12:45:22;100486.25;;;20.26
71630;BMP280;59479;51.902;8.212;2023-08-08T12:47:47;100485.34;;;20.27
71630;BMP280;59479;51.902;8.212;2023-08-08T12:50:13;100475.78;;;20.32
71630;BMP280;59479;51.902;8.212;2023-08-08T12:52:39;100485.84;;;20.35
71630;BMP280;59479;51.902;8.212;2023-08-08T12:55:05;100475.50;;;20.38
71630;BMP280;59479;51.902;8.212;2023-08-08T12:57:31;100479.16;;;20.53
71630;BMP280;59479;51.902;8.212;2023-08-08T12:59:56;100482.59;;;20.52
71630;BMP280;59479;51.902;8.212;2023-08-08T13:02:21;100478.47;;;20.49
71630;BMP280;59479;51.902;8.212;2023-08-08T13:04:47;100478.81;;;20.40
71630;BMP280;59479;51.902;8.212;2023-08-08T13:07:12;100486.25;;;20.46
71630;BMP280;59479;51.902;8.212;2023-08-08T13:09:38;100473.72;;;20.60
71630;BMP280;59479;51.902;8.212;2023-08-08T13:12:04;100477.88;;;20.43
71630;BMP280;59479;51.902;8.212;2023-08-08T13:14:30;100476.25;;;20.60
71630;BMP280;59479;51.902;8.212;2023-08-08T13:16:55;100466.34;;;20.54
71630;BMP280;59479;51.902;8.212;2023-08-08T13:19:21;100472.91;;;20.40
71630;BMP280;59479;51.902;8.212;2023-08-08T13:21:50;100484.94;;;20.17
71630;BMP280;59479;51.902;8.212;2023-08-08T13:24:15;100473.66;;;20.22
71630;BMP280;59479;51.902;8.212;2023-08-08T13:26:41;100481.38;;;20.21
71630;BMP280;59479;51.902;8.212;2023-08-08T13:29:07;100473.41;;;20.28
71630;BMP280;59479;51.902;8.212;2023-08-08T13:31:32;100479.47;;;20.25
71630;BMP280;59479;51.902;8.212;2023-08-08T13:33:58;100472.50;;;20.29
71630;BMP280;59479;51.902;8.212;2023-08-08T13:36:23;100479.72;;;20.20
71630;BMP280;59479;51.902;8.212;2023-08-08T13:38:48;100471.38;;;20.16
71630;BMP280;59479;51.902;8.212;2023-08-08T13:41:14;100493.56;;;20.14
71630;BMP280;59479;51.902;8.212;2023-08-08T13:43:39;100489.94;;;20.20
71630;BMP280;59479;51.902;8.212;2023-08-08T13:46:04;100490.19;;;20.33
71630;BMP280;59479;51.902;8.212;2023-08-08T13:48:33;100504.75;;;20.31
71630;BMP280;59479;51.902;8.212;2023-08-08T13:50:59;100493.84;;;20.28
71630;BMP280;59479;51.902;8.212;2023-08-08T13:53:24;100489.41;;;20.12
71630;BMP280;59479;51.902;8.212;2023-08-08T13:55:49;100493.91;;;20.26
71630;BMP280;59479;51.902;8.212;2023-08-08T13:58:15;100494.59;;;20.30